sensor_id;sensor_type;location;lat;lon;timestamp;P1;durP1;ratioP1;P2;durP2;ratioP2
18834;SDS011;9546;59.262;18.036;2022-07-03T00:01:22;6.47;;;1.73;;
18834;SDS011;9546;59.262;18.036;2022-07-03T00:03:50;5.35;;;1.90;;
18834;SDS011;9546;59.262;18.036;2022-07-03T00:06:17;2.63;;;1.60;;
18834;SDS011;9546;59.262;18.036;2022-07-03T00:08:43;3.00;;;1.60;;
18834;SDS011;9546;59.262;18.036;2022-07-03T00:11:10;2.28;;;1.60;;
18834;SDS011;9546;59.262;18.036;2022-07-03T00:13:37;3.15;;;1.70;;
18834;SDS011;9546;59.262;18.036;2022-07-03T00:16:03;6.50;;;1.95;;
18834;SDS011;9546;59.262;18.036;2022-07-03T00:18:30;4.82;;;1.63;;
18834;SDS011;9546;59.262;18.036;2022-07-03T00:20:59;2.28;;;1.48;;
18834;SDS011;9546;59.262;18.036;2022-07-03T00:23:26;5.15;;;1.42;;
18834;SDS011;9546;59.262;18.036;2022-07-03T00:25:55;3.97;;;2.03;;
18834;SDS011;9546;59.262;18.036;2022-07-03T00:28:21;4.43;;;1.85;;
18834;SDS011;9546;59.262;18.036;2022-07-03T00:30:49;3.50;;;1.73;;
18834;SDS011;9546;59.262;18.036;2022-07-03T00:33:16;6.43;;;1.98;;
18834;SDS011;9546;59.262;18.036;2022-07-03T00:35:43;4.53;;;1.60;;
18834;SDS011;9546;59.262;18.036;2022-07-03T00:38:11;3.17;;;1.52;;
18834;SDS011;9546;59.262;18.036;2022-07-03T00:40:38;1.88;;;1.42;;
18834;SDS011;9546;59.262;18.036;2022-07-03T00:43:04;3.25;;;1.63;;
18834;SDS011;9546;59.262;18.036;2022-07-03T00:45:32;2.65;;;1.70;;
18834;SDS011;9546;59.262;18.036;2022-07-03T00:47:59;4.25;;;1.70;;
18834;SDS011;9546;59.262;18.036;2022-07-03T00:50:27;4.78;;;1.83;;
18834;SDS011;9546;59.262;18.036;2022-07-03T01:12:15;5.95;;;1.77;;
18834;SDS011;9546;59.262;18.036;2022-07-03T01:14:48;3.42;;;1.67;;
18834;SDS011;9546;59.262;18.036;2022-07-03T01:17:20;3.45;;;1.88;;
18834;SDS011;9546;59.262;18.036;2022-07-03T01:19:48;2.97;;;1.70;;
18834;SDS011;9546;59.262;18.036;2022-07-03T01:22:26;3.50;;;1.88;;
18834;SDS011;9546;59.262;18.036;2022-07-03T01:24:56;3.80;;;1.80;;
18834;SDS011;9546;59.262;18.036;2022-07-03T01:27:27;2.63;;;1.95;;
18834;SDS011;9546;59.262;18.036;2022-07-03T01:29:56;3.15;;;1.75;;
18834;SDS011;9546;59.262;18.036;2022-07-03T01:32:29;2.47;;;1.80;;
18834;SDS011;9546;59.262;18.036;2022-07-03T01:34:57;3.95;;;1.90;;
18834;SDS011;9546;59.262;18.036;2022-07-03T01:37:25;3.88;;;1.70;;
18834;SDS011;9546;59.262;18.036;2022-07-03T01:39:54;2.72;;;2.25;;
18834;SDS011;9546;59.262;18.036;2022-07-03T01:42:22;4.05;;;1.90;;
18834;SDS011;9546;59.262;18.036;2022-07-03T01:44:50;5.40;;;2.33;;
18834;SDS011;9546;59.262;18.036;2022-07-03T01:47:17;2.92;;;1.92;;
18834;SDS011;9546;59.262;18.036;2022-07-03T01:49:44;3.45;;;1.67;;
18834;SDS011;9546;59.262;18.036;2022-07-03T01:52:10;4.15;;;2.10;;
18834;SDS011;9546;59.262;18.036;2022-07-03T01:54:38;3.78;;;1.60;;
18834;SDS011;9546;59.262;18.036;2022-07-03T01:57:05;5.22;;;2.00;;
18834;SDS011;9546;59.262;18.036;2022-07-03T01:59:32;3.45;;;2.10;;
18834;SDS011;9546;59.262;18.036;2022-07-03T02:02:09;2.38;;;1.83;;
18834;SDS011;9546;59.262;18.036;2022-07-03T02:04:37;3.78;;;1.80;;
18834;SDS011;9546;59.262;18.036;2022-07-03T02:07:10;3.92;;;1.83;;
18834;SDS011;9546;59.262;18.036;2022-07-03T02:09:40;5.80;;;1.98;;
18834;SDS011;9546;59.262;18.036;2022-07-03T02:12:11;5.03;;;2.08;;
18834;SDS011;9546;59.262;18.036;2022-07-03T02:14:38;4.70;;;1.67;;
18834;SDS011;9546;59.262;18.036;2022-07-03T02:17:13;2.22;;;1.60;;
18834;SDS011;9546;59.262;18.036;2022-07-03T02:19:41;3.35;;;1.65;;
18834;SDS011;9546;59.262;18.036;2022-07-03T02:22:09;4.65;;;1.90;;
18834;SDS011;9546;59.262;18.036;2022-07-03T02:24:39;5.32;;;1.67;;
18834;SDS011;9546;59.262;18.036;2022-07-03T02:27:09;5.63;;;1.90;;
18834;SDS011;9546;59.262;18.036;2022-07-03T02:29:36;6.75;;;1.98;;
18834;SDS011;9546;59.262;18.036;2022-07-03T02:32:10;4.53;;;1.90;;
18834;SDS011;9546;59.262;18.036;2022-07-03T02:34:37;6.55;;;2.10;;
18834;SDS011;9546;59.262;18.036;2022-07-03T02:37:06;2.92;;;1.80;;
18834;SDS011;9546;59.262;18.036;2022-07-03T02:39:38;2.38;;;1.60;;
18834;SDS011;9546;59.262;18.036;2022-07-03T02:42:10;3.33;;;1.85;;
18834;SDS011;9546;59.262;18.036;2022-07-03T02:44:40;4.47;;;1.52;;
18834;SDS011;9546;59.262;18.036;2022-07-03T02:47:11;5.30;;;1.92;;
18834;SDS011;9546;59.262;18.036;2022-07-03T02:49:48;3.50;;;1.90;;
18834;SDS011;9546;59.262;18.036;2022-07-03T03:12:37;1.77;;;1.65;;
18834;SDS011;9546;59.262;18.036;2022-07-03T03:15:07;2.97;;;1.77;;
18834;SDS011;9546;59.262;18.036;2022-07-03T03:17:39;2.28;;;1.88;;
18834;SDS011;9546;59.262;18.036;2022-07-03T03:20:08;2.58;;;1.77;;
18834;SDS011;9546;59.262;18.036;2022-07-03T03:22:39;5.85;;;1.80;;
18834;SDS011;9546;59.262;18.036;2022-07-03T03:25:07;4.78;;;2.20;;
18834;SDS011;9546;59.262;18.036;2022-07-03T03:27:33;2.33;;;1.80;;
18834;SDS011;9546;59.262;18.036;2022-07-03T03:30:02;4.10;;;1.92;;
18834;SDS011;9546;59.262;18.036;2022-07-03T03:32:31;3.75;;;1.75;;
18834;SDS011;9546;59.262;18.036;2022-07-03T03:35:00;2.78;;;1.52;;
18834;SDS011;9546;59.262;18.036;2022-07-03T03:37:27;7.70;;;2.13;;
18834;SDS011;9546;59.262;18.036;2022-07-03T03:39:54;3.50;;;1.60;;
18834;SDS011;9546;59.262;18.036;2022-07-03T03:42:20;8.50;;;2.08;;
18834;SDS011;9546;59.262;18.036;2022-07-03T03:44:47;4.25;;;1.60;;
18834;SDS011;9546;59.262;18.036;2022-07-03T03:47:15;4.20;;;1.80;;
18834;SDS011;9546;59.262;18.036;2022-07-03T03:49:41;4.57;;;2.05;;
18834;SDS011;9546;59.262;18.036;2022-07-03T03:52:08;4.28;;;1.70;;
18834;SDS011;9546;59.262;18.036;2022-07-03T03:54:34;3.60;;;2.33;;
18834;SDS011;9546;59.262;18.036;2022-07-03T03:57:14;7.93;;;2.03;;
18834;SDS011;9546;59.262;18.036;2022-07-03T03:59:41;4.32;;;1.90;;
18834;SDS011;9546;59.262;18.036;2022-07-03T04:02:07;2.50;;;1.55;;
18834;SDS011;9546;59.262;18.036;2022-07-03T04:04:35;4.63;;;1.98;;
18834;SDS011;9546;59.262;18.036;2022-07-03T04:07:02;5.55;;;2.53;;
18834;SDS011;9546;59.262;18.036;2022-07-03T04:09:28;3.42;;;1.98;;
18834;SDS011;9546;59.262;18.036;2022-07-03T04:11:55;3.60;;;1.55;;
18834;SDS011;9546;59.262;18.036;2022-07-03T04:14:22;1.83;;;1.63;;
18834;SDS011;9546;59.262;18.036;2022-07-03T04:16:48;3.30;;;1.70;;
18834;SDS011;9546;59.262;18.036;2022-07-03T04:19:15;4.88;;;1.83;;
18834;SDS011;9546;59.262;18.036;2022-07-03T04:21:43;2.92;;;1.70;;
18834;SDS011;9546;59.262;18.036;2022-07-03T04:24:09;3.58;;;1.70;;
18834;SDS011;9546;59.262;18.036;2022-07-03T04:26:36;3.60;;;1.40;;
18834;SDS011;9546;59.262;18.036;2022-07-03T04:29:02;3.78;;;1.80;;
18834;SDS011;9546;59.262;18.036;2022-07-03T04:31:29;5.93;;;2.10;;
18834;SDS011;9546;59.262;18.036;2022-07-03T04:33:55;4.10;;;1.83;;
18834;SDS011;9546;59.262;18.036;2022-07-03T04:36:22;4.72;;;1.77;;
18834;SDS011;9546;59.262;18.036;2022-07-03T04:38:50;2.28;;;1.50;;
18834;SDS011;9546;59.262;18.036;2022-07-03T04:41:16;2.75;;;1.45;;
18834;SDS011;9546;59.262;18.036;2022-07-03T04:43:43;2.83;;;1.67;;
18834;SDS011;9546;59.262;18.036;2022-07-03T04:46:09;4.25;;;1.60;;
18834;SDS011;9546;59.262;18.036;2022-07-03T04:48:36;4.38;;;1.67;;
18834;SDS011;9546;59.262;18.036;2022-07-03T04:51:03;3.03;;;1.70;;
18834;SDS011;9546;59.262;18.036;2022-07-03T05:11:56;2.92;;;1.58;;
18834;SDS011;9546;59.262;18.036;2022-07-03T05:14:23;8.93;;;1.65;;
18834;SDS011;9546;59.262;18.036;2022-07-03T05:16:50;3.70;;;1.77;;
18834;SDS011;9546;59.262;18.036;2022-07-03T05:19:16;2.85;;;1.55;;
18834;SDS011;9546;59.262;18.036;2022-07-03T05:21:42;1.67;;;1.40;;
18834;SDS011;9546;59.262;18.036;2022-07-03T05:24:09;4.63;;;1.58;;
18834;SDS011;9546;59.262;18.036;2022-07-03T05:26:35;2.97;;;1.50;;
18834;SDS011;9546;59.262;18.036;2022-07-03T05:29:04;2.05;;;1.30;;
18834;SDS011;9546;59.262;18.036;2022-07-03T05:31:30;6.45;;;1.85;;
18834;SDS011;9546;59.262;18.036;2022-07-03T05:33:57;4.20;;;1.45;;
18834;SDS011;9546;59.262;18.036;2022-07-03T05:36:23;2.95;;;1.40;;
18834;SDS011;9546;59.262;18.036;2022-07-03T05:38:50;4.47;;;1.48;;
18834;SDS011;9546;59.262;18.036;2022-07-03T05:41:34;3.15;;;1.50;;
18834;SDS011;9546;59.262;18.036;2022-07-03T05:44:00;3.58;;;1.42;;
18834;SDS011;9546;59.262;18.036;2022-07-03T05:46:28;4.85;;;1.42;;
18834;SDS011;9546;59.262;18.036;2022-07-03T05:48:55;3.63;;;1.48;;
18834;SDS011;9546;59.262;18.036;2022-07-03T05:51:21;2.95;;;1.20;;
18834;SDS011;9546;59.262;18.036;2022-07-03T05:53:48;2.80;;;1.45;;
18834;SDS011;9546;59.262;18.036;2022-07-03T05:56:14;3.15;;;1.30;;
18834;SDS011;9546;59.262;18.036;2022-07-03T05:58:41;1.75;;;1.30;;
18834;SDS011;9546;59.262;18.036;2022-07-03T06:01:07;3.90;;;1.23;;
18834;SDS011;9546;59.262;18.036;2022-07-03T06:03:35;2.35;;;1.00;;
18834;SDS011;9546;59.262;18.036;2022-07-03T06:06:02;3.13;;;1.23;;
18834;SDS011;9546;59.262;18.036;2022-07-03T06:08:28;3.70;;;1.00;;
18834;SDS011;9546;59.262;18.036;2022-07-03T06:10:55;3.38;;;1.10;;
18834;SDS011;9546;59.262;18.036;2022-07-03T06:13:21;5.68;;;1.30;;
18834;SDS011;9546;59.262;18.036;2022-07-03T06:15:48;4.35;;;1.30;;
18834;SDS011;9546;59.262;18.036;2022-07-03T06:18:14;2.30;;;1.08;;
18834;SDS011;9546;59.262;18.036;2022-07-03T06:20:42;2.80;;;1.40;;
18834;SDS011;9546;59.262;18.036;2022-07-03T06:23:09;3.22;;;1.23;;
18834;SDS011;9546;59.262;18.036;2022-07-03T06:25:35;4.10;;;1.55;;
18834;SDS011;9546;59.262;18.036;2022-07-03T06:28:02;3.63;;;1.60;;
18834;SDS011;9546;59.262;18.036;2022-07-03T06:30:29;1.95;;;1.25;;
18834;SDS011;9546;59.262;18.036;2022-07-03T06:32:55;1.90;;;1.20;;
18834;SDS011;9546;59.262;18.036;2022-07-03T06:35:22;6.15;;;1.40;;
18834;SDS011;9546;59.262;18.036;2022-07-03T06:37:49;2.55;;;1.10;;
18834;SDS011;9546;59.262;18.036;2022-07-03T06:40:16;1.25;;;1.05;;
18834;SDS011;9546;59.262;18.036;2022-07-03T06:42:42;4.57;;;1.23;;
18834;SDS011;9546;59.262;18.036;2022-07-03T06:45:09;2.70;;;1.13;;
18834;SDS011;9546;59.262;18.036;2022-07-03T06:47:36;3.22;;;1.48;;
18834;SDS011;9546;59.262;18.036;2022-07-03T06:50:03;3.08;;;1.10;;
18834;SDS011;9546;59.262;18.036;2022-07-03T07:12:01;3.30;;;1.23;;
18834;SDS011;9546;59.262;18.036;2022-07-03T07:14:27;4.45;;;1.20;;
18834;SDS011;9546;59.262;18.036;2022-07-03T07:16:54;3.42;;;1.20;;
18834;SDS011;9546;59.262;18.036;2022-07-03T07:19:21;1.25;;;1.00;;
18834;SDS011;9546;59.262;18.036;2022-07-03T07:21:47;2.08;;;1.10;;
18834;SDS011;9546;59.262;18.036;2022-07-03T07:24:14;4.32;;;1.30;;
18834;SDS011;9546;59.262;18.036;2022-07-03T07:26:40;5.88;;;1.20;;
18834;SDS011;9546;59.262;18.036;2022-07-03T07:29:09;3.10;;;1.30;;
18834;SDS011;9546;59.262;18.036;2022-07-03T07:31:35;3.38;;;1.05;;
18834;SDS011;9546;59.262;18.036;2022-07-03T07:34:02;2.33;;;1.10;;
18834;SDS011;9546;59.262;18.036;2022-07-03T07:36:29;3.53;;;1.13;;
18834;SDS011;9546;59.262;18.036;2022-07-03T07:38:56;3.08;;;1.10;;
18834;SDS011;9546;59.262;18.036;2022-07-03T07:41:22;2.33;;;0.75;;
18834;SDS011;9546;59.262;18.036;2022-07-03T07:43:49;6.13;;;1.13;;
18834;SDS011;9546;59.262;18.036;2022-07-03T07:46:17;1.95;;;0.90;;
18834;SDS011;9546;59.262;18.036;2022-07-03T07:48:43;2.85;;;1.40;;
18834;SDS011;9546;59.262;18.036;2022-07-03T07:51:11;4.70;;;1.48;;
18834;SDS011;9546;59.262;18.036;2022-07-03T07:53:37;4.18;;;1.35;;
18834;SDS011;9546;59.262;18.036;2022-07-03T07:56:04;3.50;;;1.40;;
18834;SDS011;9546;59.262;18.036;2022-07-03T07:58:30;3.45;;;1.05;;
18834;SDS011;9546;59.262;18.036;2022-07-03T08:00:57;3.70;;;1.10;;
18834;SDS011;9546;59.262;18.036;2022-07-03T08:03:42;1.85;;;1.10;;
18834;SDS011;9546;59.262;18.036;2022-07-03T08:06:26;5.75;;;1.08;;
18834;SDS011;9546;59.262;18.036;2022-07-03T08:08:53;3.33;;;0.90;;
18834;SDS011;9546;59.262;18.036;2022-07-03T08:11:19;4.63;;;1.02;;
18834;SDS011;9546;59.262;18.036;2022-07-03T08:13:46;3.53;;;1.48;;
18834;SDS011;9546;59.262;18.036;2022-07-03T08:16:12;3.85;;;1.20;;
18834;SDS011;9546;59.262;18.036;2022-07-03T08:18:39;4.10;;;1.23;;
18834;SDS011;9546;59.262;18.036;2022-07-03T08:21:07;2.20;;;1.00;;
18834;SDS011;9546;59.262;18.036;2022-07-03T08:23:34;2.53;;;1.10;;
18834;SDS011;9546;59.262;18.036;2022-07-03T08:26:00;2.75;;;0.82;;
18834;SDS011;9546;59.262;18.036;2022-07-03T08:28:27;3.72;;;1.50;;
18834;SDS011;9546;59.262;18.036;2022-07-03T08:30:54;1.52;;;1.10;;
18834;SDS011;9546;59.262;18.036;2022-07-03T08:33:20;4.65;;;1.17;;
18834;SDS011;9546;59.262;18.036;2022-07-03T08:35:47;2.08;;;1.20;;
18834;SDS011;9546;59.262;18.036;2022-07-03T08:38:15;2.58;;;1.10;;
18834;SDS011;9546;59.262;18.036;2022-07-03T08:40:41;3.03;;;1.00;;
18834;SDS011;9546;59.262;18.036;2022-07-03T08:43:09;2.17;;;1.00;;
18834;SDS011;9546;59.262;18.036;2022-07-03T08:45:36;3.38;;;1.17;;
18834;SDS011;9546;59.262;18.036;2022-07-03T08:48:04;4.75;;;1.35;;
18834;SDS011;9546;59.262;18.036;2022-07-03T08:50:32;2.22;;;1.02;;
18834;SDS011;9546;59.262;18.036;2022-07-03T09:12:04;3.30;;;1.13;;
18834;SDS011;9546;59.262;18.036;2022-07-03T09:14:31;2.38;;;0.93;;
18834;SDS011;9546;59.262;18.036;2022-07-03T09:16:57;4.95;;;1.13;;
18834;SDS011;9546;59.262;18.036;2022-07-03T09:19:40;3.50;;;1.52;;
18834;SDS011;9546;59.262;18.036;2022-07-03T09:22:16;3.30;;;0.90;;
18834;SDS011;9546;59.262;18.036;2022-07-03T09:24:45;3.47;;;1.00;;
18834;SDS011;9546;59.262;18.036;2022-07-03T09:27:15;2.17;;;0.80;;
18834;SDS011;9546;59.262;18.036;2022-07-03T09:29:48;3.17;;;1.10;;
18834;SDS011;9546;59.262;18.036;2022-07-03T09:32:16;3.33;;;0.90;;
18834;SDS011;9546;59.262;18.036;2022-07-03T09:34:43;1.75;;;1.13;;
18834;SDS011;9546;59.262;18.036;2022-07-03T09:37:09;1.77;;;0.93;;
18834;SDS011;9546;59.262;18.036;2022-07-03T09:39:37;1.13;;;0.80;;
18834;SDS011;9546;59.262;18.036;2022-07-03T09:42:05;2.97;;;0.98;;
18834;SDS011;9546;59.262;18.036;2022-07-03T09:44:34;2.05;;;1.05;;
18834;SDS011;9546;59.262;18.036;2022-07-03T09:47:08;1.25;;;0.50;;
18834;SDS011;9546;59.262;18.036;2022-07-03T09:49:44;2.75;;;0.90;;
18834;SDS011;9546;59.262;18.036;2022-07-03T09:52:14;2.08;;;0.77;;
18834;SDS011;9546;59.262;18.036;2022-07-03T09:54:51;1.35;;;0.80;;
18834;SDS011;9546;59.262;18.036;2022-07-03T09:57:18;5.18;;;1.00;;
18834;SDS011;9546;59.262;18.036;2022-07-03T09:59:46;1.48;;;0.75;;
18834;SDS011;9546;59.262;18.036;2022-07-03T10:02:13;4.43;;;1.10;;
18834;SDS011;9546;59.262;18.036;2022-07-03T10:04:40;6.57;;;1.15;;
18834;SDS011;9546;59.262;18.036;2022-07-03T10:07:06;3.08;;;0.88;;
18834;SDS011;9546;59.262;18.036;2022-07-03T10:09:33;3.20;;;0.82;;
18834;SDS011;9546;59.262;18.036;2022-07-03T10:12:01;2.72;;;0.95;;
18834;SDS011;9546;59.262;18.036;2022-07-03T10:14:28;4.57;;;1.13;;
18834;SDS011;9546;59.262;18.036;2022-07-03T10:16:57;1.02;;;0.60;;
18834;SDS011;9546;59.262;18.036;2022-07-03T10:19:30;6.10;;;0.90;;
18834;SDS011;9546;59.262;18.036;2022-07-03T10:21:57;2.33;;;0.70;;
18834;SDS011;9546;59.262;18.036;2022-07-03T10:24:25;1.55;;;0.70;;
18834;SDS011;9546;59.262;18.036;2022-07-03T10:26:52;2.25;;;1.17;;
18834;SDS011;9546;59.262;18.036;2022-07-03T10:29:20;3.15;;;0.90;;
18834;SDS011;9546;59.262;18.036;2022-07-03T10:31:47;1.42;;;0.80;;
18834;SDS011;9546;59.262;18.036;2022-07-03T10:34:19;2.75;;;1.92;;
18834;SDS011;9546;59.262;18.036;2022-07-03T10:36:46;1.80;;;1.20;;
18834;SDS011;9546;59.262;18.036;2022-07-03T10:39:17;1.60;;;0.68;;
18834;SDS011;9546;59.262;18.036;2022-07-03T10:41:46;3.42;;;0.98;;
18834;SDS011;9546;59.262;18.036;2022-07-03T10:44:31;3.95;;;1.20;;
18834;SDS011;9546;59.262;18.036;2022-07-03T10:50:01;1.40;;;0.90;;
18834;SDS011;9546;59.262;18.036;2022-07-03T11:15:25;1.35;;;0.70;;
18834;SDS011;9546;59.262;18.036;2022-07-03T11:18:09;1.08;;;0.70;;
18834;SDS011;9546;59.262;18.036;2022-07-03T11:29:58;1.27;;;0.60;;
18834;SDS011;9546;59.262;18.036;2022-07-03T11:32:45;2.90;;;0.90;;
18834;SDS011;9546;59.262;18.036;2022-07-03T11:38:11;2.72;;;0.80;;
18834;SDS011;9546;59.262;18.036;2022-07-03T11:40:40;2.70;;;0.70;;
18834;SDS011;9546;59.262;18.036;2022-07-03T11:43:09;2.65;;;0.80;;
18834;SDS011;9546;59.262;18.036;2022-07-03T11:45:38;1.63;;;1.15;;
18834;SDS011;9546;59.262;18.036;2022-07-03T11:48:07;2.45;;;0.73;;
18834;SDS011;9546;59.262;18.036;2022-07-03T11:50:36;2.53;;;0.93;;
18834;SDS011;9546;59.262;18.036;2022-07-03T11:53:19;2.13;;;1.02;;
18834;SDS011;9546;59.262;18.036;2022-07-03T11:55:51;3.17;;;0.60;;
18834;SDS011;9546;59.262;18.036;2022-07-03T11:58:22;1.13;;;0.82;;
18834;SDS011;9546;59.262;18.036;2022-07-03T12:00:51;1.85;;;1.15;;
18834;SDS011;9546;59.262;18.036;2022-07-03T12:03:23;5.38;;;0.95;;
18834;SDS011;9546;59.262;18.036;2022-07-03T12:05:52;0.95;;;0.80;;
18834;SDS011;9546;59.262;18.036;2022-07-03T12:08:27;0.73;;;0.63;;
18834;SDS011;9546;59.262;18.036;2022-07-03T12:11:00;5.18;;;0.88;;
18834;SDS011;9546;59.262;18.036;2022-07-03T12:13:28;2.55;;;0.82;;
18834;SDS011;9546;59.262;18.036;2022-07-03T12:16:05;2.72;;;1.05;;
18834;SDS011;9546;59.262;18.036;2022-07-03T12:18:43;1.20;;;0.70;;
18834;SDS011;9546;59.262;18.036;2022-07-03T12:21:15;1.70;;;0.88;;
18834;SDS011;9546;59.262;18.036;2022-07-03T12:23:43;1.80;;;0.70;;
18834;SDS011;9546;59.262;18.036;2022-07-03T12:26:11;1.50;;;0.70;;
18834;SDS011;9546;59.262;18.036;2022-07-03T12:28:38;3.03;;;0.90;;
18834;SDS011;9546;59.262;18.036;2022-07-03T12:31:07;3.65;;;1.25;;
18834;SDS011;9546;59.262;18.036;2022-07-03T12:33:34;2.05;;;0.73;;
18834;SDS011;9546;59.262;18.036;2022-07-03T12:36:03;1.08;;;0.70;;
18834;SDS011;9546;59.262;18.036;2022-07-03T12:38:30;1.30;;;0.70;;
18834;SDS011;9546;59.262;18.036;2022-07-03T12:41:02;2.30;;;0.80;;
18834;SDS011;9546;59.262;18.036;2022-07-03T12:43:35;3.58;;;1.38;;
18834;SDS011;9546;59.262;18.036;2022-07-03T12:46:03;1.67;;;0.70;;
18834;SDS011;9546;59.262;18.036;2022-07-03T12:48:46;1.02;;;0.68;;
18834;SDS011;9546;59.262;18.036;2022-07-03T12:51:14;1.83;;;0.90;;
18834;SDS011;9546;59.262;18.036;2022-07-03T13:12:47;2.30;;;0.90;;
18834;SDS011;9546;59.262;18.036;2022-07-03T13:15:16;2.13;;;1.00;;
18834;SDS011;9546;59.262;18.036;2022-07-03T13:17:51;2.38;;;0.93;;
18834;SDS011;9546;59.262;18.036;2022-07-03T13:20:28;2.58;;;1.27;;
18834;SDS011;9546;59.262;18.036;2022-07-03T13:22:56;1.40;;;0.82;;
18834;SDS011;9546;59.262;18.036;2022-07-03T13:25:23;3.40;;;1.40;;
18834;SDS011;9546;59.262;18.036;2022-07-03T13:27:52;1.60;;;0.93;;
18834;SDS011;9546;59.262;18.036;2022-07-03T13:30:28;2.42;;;0.85;;
18834;SDS011;9546;59.262;18.036;2022-07-03T13:32:55;1.25;;;0.80;;
18834;SDS011;9546;59.262;18.036;2022-07-03T13:35:22;2.28;;;1.00;;
18834;SDS011;9546;59.262;18.036;2022-07-03T13:37:49;3.65;;;1.02;;
18834;SDS011;9546;59.262;18.036;2022-07-03T13:40:16;1.83;;;1.00;;
18834;SDS011;9546;59.262;18.036;2022-07-03T13:42:42;3.08;;;1.10;;
18834;SDS011;9546;59.262;18.036;2022-07-03T13:45:11;1.83;;;1.00;;
18834;SDS011;9546;59.262;18.036;2022-07-03T13:47:38;2.05;;;1.08;;
18834;SDS011;9546;59.262;18.036;2022-07-03T13:50:05;5.15;;;1.08;;
18834;SDS011;9546;59.262;18.036;2022-07-03T13:52:32;1.70;;;0.98;;
18834;SDS011;9546;59.262;18.036;2022-07-03T13:54:59;1.10;;;0.88;;
18834;SDS011;9546;59.262;18.036;2022-07-03T13:57:26;0.82;;;0.70;;
18834;SDS011;9546;59.262;18.036;2022-07-03T13:59:52;3.95;;;1.42;;
18834;SDS011;9546;59.262;18.036;2022-07-03T14:02:21;1.63;;;1.00;;
18834;SDS011;9546;59.262;18.036;2022-07-03T14:04:47;1.35;;;0.70;;
18834;SDS011;9546;59.262;18.036;2022-07-03T14:07:14;5.88;;;1.00;;
18834;SDS011;9546;59.262;18.036;2022-07-03T14:09:41;2.20;;;0.90;;
18834;SDS011;9546;59.262;18.036;2022-07-03T14:12:08;1.40;;;0.85;;
18834;SDS011;9546;59.262;18.036;2022-07-03T14:14:35;3.08;;;1.25;;
18834;SDS011;9546;59.262;18.036;2022-07-03T14:17:02;0.82;;;0.70;;
18834;SDS011;9546;59.262;18.036;2022-07-03T14:19:31;3.70;;;0.82;;
18834;SDS011;9546;59.262;18.036;2022-07-03T14:21:57;1.60;;;0.90;;
18834;SDS011;9546;59.262;18.036;2022-07-03T14:24:24;2.55;;;0.90;;
18834;SDS011;9546;59.262;18.036;2022-07-03T14:26:51;1.40;;;0.80;;
18834;SDS011;9546;59.262;18.036;2022-07-03T14:29:43;1.58;;;0.82;;
18834;SDS011;9546;59.262;18.036;2022-07-03T14:32:28;1.98;;;1.00;;
18834;SDS011;9546;59.262;18.036;2022-07-03T14:34:59;2.03;;;0.82;;
18834;SDS011;9546;59.262;18.036;2022-07-03T14:37:27;1.75;;;0.75;;
18834;SDS011;9546;59.262;18.036;2022-07-03T14:39:54;2.13;;;0.85;;
18834;SDS011;9546;59.262;18.036;2022-07-03T14:42:21;1.52;;;0.80;;
18834;SDS011;9546;59.262;18.036;2022-07-03T14:44:48;1.75;;;0.80;;
18834;SDS011;9546;59.262;18.036;2022-07-03T14:47:15;1.83;;;0.85;;
18834;SDS011;9546;59.262;18.036;2022-07-03T14:49:42;0.85;;;0.70;;
18834;SDS011;9546;59.262;18.036;2022-07-03T14:52:11;3.60;;;1.00;;
18834;SDS011;9546;59.262;18.036;2022-07-03T15:12:47;1.88;;;0.93;;
18834;SDS011;9546;59.262;18.036;2022-07-03T15:15:15;4.05;;;1.13;;
18834;SDS011;9546;59.262;18.036;2022-07-03T15:17:42;3.40;;;1.20;;
18834;SDS011;9546;59.262;18.036;2022-07-03T15:20:11;3.13;;;1.00;;
18834;SDS011;9546;59.262;18.036;2022-07-03T15:22:38;1.50;;;1.00;;
18834;SDS011;9546;59.262;18.036;2022-07-03T15:25:05;1.52;;;0.98;;
18834;SDS011;9546;59.262;18.036;2022-07-03T15:27:32;1.75;;;1.00;;
18834;SDS011;9546;59.262;18.036;2022-07-03T15:30:01;1.17;;;0.85;;
18834;SDS011;9546;59.262;18.036;2022-07-03T15:32:27;1.40;;;0.70;;
18834;SDS011;9546;59.262;18.036;2022-07-03T15:34:54;3.67;;;1.23;;
18834;SDS011;9546;59.262;18.036;2022-07-03T15:37:25;1.33;;;0.75;;
18834;SDS011;9546;59.262;18.036;2022-07-03T15:39:54;2.13;;;0.90;;
18834;SDS011;9546;59.262;18.036;2022-07-03T15:42:24;2.58;;;1.08;;
18834;SDS011;9546;59.262;18.036;2022-07-03T15:44:52;1.80;;;1.00;;
18834;SDS011;9546;59.262;18.036;2022-07-03T15:47:27;2.30;;;0.93;;
18834;SDS011;9546;59.262;18.036;2022-07-03T15:49:57;3.92;;;1.08;;
18834;SDS011;9546;59.262;18.036;2022-07-03T15:52:24;1.92;;;1.00;;
18834;SDS011;9546;59.262;18.036;2022-07-03T15:54:52;2.22;;;0.90;;
18834;SDS011;9546;59.262;18.036;2022-07-03T15:57:22;2.85;;;1.02;;
18834;SDS011;9546;59.262;18.036;2022-07-03T15:59:51;1.77;;;0.88;;
18834;SDS011;9546;59.262;18.036;2022-07-03T16:02:26;1.48;;;0.73;;
18834;SDS011;9546;59.262;18.036;2022-07-03T16:05:02;2.75;;;0.93;;
18834;SDS011;9546;59.262;18.036;2022-07-03T16:07:29;2.42;;;1.00;;
18834;SDS011;9546;59.262;18.036;2022-07-03T16:09:57;3.10;;;1.35;;
18834;SDS011;9546;59.262;18.036;2022-07-03T16:12:24;2.15;;;1.00;;
18834;SDS011;9546;59.262;18.036;2022-07-03T16:14:51;1.80;;;0.93;;
18834;SDS011;9546;59.262;18.036;2022-07-03T16:17:18;2.20;;;0.95;;
18834;SDS011;9546;59.262;18.036;2022-07-03T16:19:45;1.88;;;0.98;;
18834;SDS011;9546;59.262;18.036;2022-07-03T16:22:13;2.13;;;0.95;;
18834;SDS011;9546;59.262;18.036;2022-07-03T16:24:40;1.17;;;0.70;;
18834;SDS011;9546;59.262;18.036;2022-07-03T16:27:07;3.60;;;0.98;;
18834;SDS011;9546;59.262;18.036;2022-07-03T16:29:37;1.70;;;1.08;;
18834;SDS011;9546;59.262;18.036;2022-07-03T16:32:03;2.67;;;0.98;;
18834;SDS011;9546;59.262;18.036;2022-07-03T16:34:33;1.52;;;0.82;;
18834;SDS011;9546;59.262;18.036;2022-07-03T16:37:01;1.63;;;0.80;;
18834;SDS011;9546;59.262;18.036;2022-07-03T16:39:34;2.20;;;0.80;;
18834;SDS011;9546;59.262;18.036;2022-07-03T16:42:01;3.03;;;1.10;;
18834;SDS011;9546;59.262;18.036;2022-07-03T16:44:28;1.52;;;0.85;;
18834;SDS011;9546;59.262;18.036;2022-07-03T16:46:57;3.63;;;1.10;;
18834;SDS011;9546;59.262;18.036;2022-07-03T16:49:25;1.83;;;0.75;;
18834;SDS011;9546;59.262;18.036;2022-07-03T16:51:55;1.50;;;0.80;;
18834;SDS011;9546;59.262;18.036;2022-07-03T17:12:45;1.77;;;1.27;;
18834;SDS011;9546;59.262;18.036;2022-07-03T17:15:12;1.65;;;0.80;;
18834;SDS011;9546;59.262;18.036;2022-07-03T17:17:39;1.73;;;1.00;;
18834;SDS011;9546;59.262;18.036;2022-07-03T17:20:08;1.20;;;0.93;;
18834;SDS011;9546;59.262;18.036;2022-07-03T17:22:36;4.82;;;0.95;;
18834;SDS011;9546;59.262;18.036;2022-07-03T17:25:03;3.15;;;0.90;;
18834;SDS011;9546;59.262;18.036;2022-07-03T17:27:30;0.95;;;0.80;;
18834;SDS011;9546;59.262;18.036;2022-07-03T17:30:05;2.10;;;0.98;;
18834;SDS011;9546;59.262;18.036;2022-07-03T17:32:39;2.72;;;1.10;;
18834;SDS011;9546;59.262;18.036;2022-07-03T17:35:07;3.08;;;1.10;;
18834;SDS011;9546;59.262;18.036;2022-07-03T17:37:34;2.55;;;0.85;;
18834;SDS011;9546;59.262;18.036;2022-07-03T17:40:03;1.38;;;0.98;;
18834;SDS011;9546;59.262;18.036;2022-07-03T17:42:30;1.33;;;1.05;;
18834;SDS011;9546;59.262;18.036;2022-07-03T17:44:58;4.47;;;0.90;;
18834;SDS011;9546;59.262;18.036;2022-07-03T17:47:27;2.03;;;1.00;;
18834;SDS011;9546;59.262;18.036;2022-07-03T17:49:54;1.60;;;0.85;;
18834;SDS011;9546;59.262;18.036;2022-07-03T17:52:22;3.13;;;1.00;;
18834;SDS011;9546;59.262;18.036;2022-07-03T17:54:50;2.25;;;1.13;;
18834;SDS011;9546;59.262;18.036;2022-07-03T17:57:17;2.45;;;1.13;;
18834;SDS011;9546;59.262;18.036;2022-07-03T18:00:06;1.38;;;1.15;;
18834;SDS011;9546;59.262;18.036;2022-07-03T18:02:34;2.03;;;1.00;;
18834;SDS011;9546;59.262;18.036;2022-07-03T18:05:01;2.00;;;1.10;;
18834;SDS011;9546;59.262;18.036;2022-07-03T18:07:34;1.48;;;1.00;;